Weather Models
Both GFS & NAM
00z 06z 12z 18z
24hr Precip
00z 06z 12z 18z
36hr Simulated radar
00z 06z 12z 18z
SKEWT Soundings
00z 12z
Current Conditions (Updated 12:20pm on 4/22/18)
Temperature
 68°
3.43
68°  
48°  
0
10
20
30
40
50
60
70
80
90
100
Dew Point
20°
26°  
18°  
-20
-10
0
10
20
30
40
50
60
70
80
Heat Index
66°
66°  
47°  
30
40
50
60
70
80
90
100
110
120
130
Heat Index
Humidity
20%
34% 
20% 
0
10
20
30
40
50
60
70
80
90
100
Barometer
30.43
   Falling
30.46  
30.40  
28.00
28.30
28.60
28.90
29.20
29.50
29.80
30.10
30.40
30.70
31.00
Temperature
Dew Point
Humidity
Pressure
Wind
5mph
 SW
Daily Rain
.00
.05
.10
.15
.20
.25
.30
.35
.40
.45
.50
Rain Today
 0.00" 
Month Rain
0.00
0.50
1.00
1.50
2.00
2.50
3.00
3.50
4.00
4.50
5.00
Month Rain
 2.89" 
Year Rain
0.00
2.50
5.00
7.50
10.00
12.50
15.00
17.50
20.00
22.50
25.00
Year Rain
 15.72" 
Sun & Moon Data
Sunrise 6:11am
Sunset 7:44pm
Moonrise 11:55am
Moonset 1:48am
Moon % 46%
Other Rain Data
Past Hour 0.00 Past 24 Hours 0.00
Past 3 Hours 0.00 Past 7 Days 2.37
Past 6 Hours 0.00
Cloud Height
10500


Current Front Map
Current Satellite map
7 Day Forecast
NWS Forecast for Philadelphia PA
National Weather Service Forecast for: Philadelphia PA
Issued by: National Weather Service Philadelphia, PA
Updated: 9:37 am EDT Apr 22, 2018

Philadelphia
 
This
Afternoon
This Afternoon: Sunny, with a high near 65. Calm wind.
Sunny
Tonight

Tonight: Mostly clear, with a low around 42. Light southwest wind.
Mostly Clear
Monday

Monday: Sunny, with a high near 66. Calm wind becoming south 5 to 7 mph in the afternoon.
Sunny
Monday
Night
Monday Night: Mostly cloudy, with a low around 42. South wind around 6 mph becoming calm  in the evening.
Mostly Cloudy
Tuesday

Tuesday: A chance of rain, mainly after 2pm.  Cloudy, with a high near 60. Southeast wind 6 to 13 mph.  Chance of precipitation is 30%. New precipitation amounts of less than a tenth of an inch possible.
Chance Rain
Tuesday
Night
Tuesday Night: Rain, mainly after 10pm.  Patchy fog. Low around 51. Chance of precipitation is 80%. New precipitation amounts between a half and three quarters of an inch possible.
Rain and
Patchy Fog
Wednesday

Wednesday: Rain.  Patchy fog before 2pm. High near 65. Chance of precipitation is 80%.
Rain and
Patchy Fog
Wednesday
Night
Wednesday Night: Rain likely before 8pm, then a chance of showers after 8pm.  Mostly cloudy, with a low around 49. Chance of precipitation is 60%.
Rain Likely
Thursday

Thursday: A chance of showers.  Mostly cloudy, with a high near 65. Chance of precipitation is 40%.
Chance
Showers
Hi 65 °F Lo 42 °F Hi 66 °F Lo 42 °F Hi 60 °F Lo 51 °F Hi 65 °F Lo 49 °F Hi 65 °F

 

This Afternoon
 
Sunny, with a high near 65. Calm wind.
Tonight
 
Mostly clear, with a low around 42. Light southwest wind.
Monday
 
Sunny, with a high near 66. Calm wind becoming south 5 to 7 mph in the afternoon.
Monday Night
 
Mostly cloudy, with a low around 42. South wind around 6 mph becoming calm in the evening.
Tuesday
 
A chance of rain, mainly after 2pm. Cloudy, with a high near 60. Southeast wind 6 to 13 mph. Chance of precipitation is 30%. New precipitation amounts of less than a tenth of an inch possible.
Tuesday Night
 
Rain, mainly after 10pm. Patchy fog. Low around 51. Chance of precipitation is 80%. New precipitation amounts between a half and three quarters of an inch possible.
Wednesday
 
Rain. Patchy fog before 2pm. High near 65. Chance of precipitation is 80%.
Wednesday Night
 
Rain likely before 8pm, then a chance of showers after 8pm. Mostly cloudy, with a low around 49. Chance of precipitation is 60%.
Thursday
 
A chance of showers. Mostly cloudy, with a high near 65. Chance of precipitation is 40%.
Thursday Night
 
Partly cloudy, with a low around 48.
Friday
 
Mostly sunny, with a high near 68.
Friday Night
 
A chance of showers. Mostly cloudy, with a low around 49. Chance of precipitation is 40%.
Saturday
 
A chance of showers. Partly sunny, with a high near 65. Chance of precipitation is 40%.

 

Forecast from NOAA-NWS for Philadelphia PA.

Area Weather Current Conditions
Nearby METAR Reports

KPHL - Philadelphia, Pennsylvania
Updated: Sun, 22-Apr-2018 11:54am EDT
Mostly Cloudy
Mostly Cloudy
 Wind from ESE
Wind: ESE 6 mph , 9 km/h
Temperature: 59°F , 15°C
Dew Point: 21°F , -6°C
Humidity: 23%
Barometer: 30.43 inHg , 1030.5 hPa
Clouds: Mostly Cloudy
Visibility: 10 miles , 16 km
Cloud details: Few Clouds 22000 ft
Mostly Cloudy 25000 ft
2018/04/22 15:54 KPHL 221554Z 12005KT 10SM FEW220 BKN250 15/M06 A3043 RMK AO2 SLP302 T01501061 $
KMPO - Mt. Pocono, Pennsylvania
Updated: Sun, 22-Apr-2018 11:53am EDT
Clear
Clear
 Wind from WNW
Wind: WNW 7 mph , 11 km/h, Gust: 20 mph , 31 km/h
Temperature: 52°F , 11°C
Dew Point: 14°F , -10°C
Humidity: 22%
Barometer: 30.39 inHg , 1029.1 hPa
Clouds: Clear
Visibility: 10 miles , 16 km
2018/04/22 15:53 KMPO 221553Z AUTO 30006G17KT 10SM CLR 11/M10 A3039 RMK AO2 SLP299 T01111100
 
KACY - Atlantic City, New Jersey
Updated: Sun, 22-Apr-2018 11:54am EDT
Clear
Clear
 Wind from varies
Wind: varies 7 mph , 11 km/h
Temperature: 61°F , 16°C
Dew Point: 25°F , -4°C
Humidity: 25%
Barometer: 30.42 inHg , 1030.1 hPa
Clouds: Clear
Visibility: 10 miles , 16 km
2018/04/22 15:54 KACY 221554Z VRB06KT 10SM CLR 16/M04 A3042 RMK AO2 SLP300 T01561044
KMIV - Millville, New Jersey
Updated: Sun, 22-Apr-2018 11:54am EDT
Clear
Clear
 Wind from calm
Wind: Calm
Temperature: 59°F , 15°C
Dew Point: 19°F , -7°C
Humidity: 21%
Barometer: 30.42 inHg , 1030.1 hPa
Clouds: Clear
Visibility: 10 miles , 16 km
2018/04/22 15:54 KMIV 221554Z AUTO 00000KT 10SM CLR 15/M07 A3042 RMK AO2 SLP301 T01501067
 
KWWD - Wildwood, New Jersey
Updated: Sun, 22-Apr-2018 11:55am EDT
Clear
Clear
 Wind from E
Wind: E 8 mph , 13 km/h
Temperature: 57°F , 14°C
Dew Point: 25°F , -4°C
Humidity: 29%
Barometer: 30.44 inHg , 1030.8 hPa
Clouds: Clear
Visibility: 10 miles , 16 km
2018/04/22 15:55 KWWD 221555Z AUTO 08007KT 10SM CLR 14/M04 A3044 RMK AO2 SLP312 T01391039
KDOV - Dover Afb, Delaware
Updated: Sun, 22-Apr-2018 11:56am EDT
Partly Cloudy
Partly Cloudy
 Wind from E
Wind: E 7 mph , 11 km/h
Temperature: 57°F , 14°C
Dew Point: 27°F , -3°C
Humidity: 31%
Barometer: 30.43 inHg , 1030.5 hPa
Clouds: Partly Cloudy
Visibility: 10 miles , 16 km
Cloud details: Few Clouds 12000 ft
Partly Cloudy 20000 ft
2018/04/22 15:56 KDOV 221556Z 08006KT 10SM FEW120 SCT200 14/M03 A3043 RMK AO2A SLP308 CONTRAILS T01421027 $
Severe Weather Map
Recent Forum Post
[Philadelphia] 2017 -2018 Winter snow forecast by JC December 06, 2017, 02:00:35 AM
[Philadelphia] Request for Philly Snow Data by JC February 14, 2017, 08:42:21 PM
[Philadelphia] 2016 -2017 Winter snow forecast by JC December 01, 2016, 04:56:31 AM
[Philadelphia] Winter forecast 2016-2017 by xyonist November 30, 2016, 01:14:08 PM
[Philadelphia] 102.7 last Saturday by JC August 20, 2016, 03:26:22 AM
[Philadelphia] 2015 -2016 Winter snow forecast by JC April 19, 2016, 09:42:40 AM
[Philadelphia] Latest Models on Weekend Storm (Photos) by JC January 23, 2016, 12:01:03 PM
[Philadelphia] Possible large snow storm for end of week ? by JC January 21, 2016, 09:17:47 AM